createdAt,value
2019-02-26T00:02:25.952Z,1.45
2019-02-26T00:04:56.405Z,2.05
2019-02-26T00:07:28.141Z,1.55
2019-02-26T00:09:59.466Z,2.00
2019-02-26T00:12:30.932Z,2.35
2019-02-26T00:15:02.400Z,1.30
2019-02-26T00:17:31.150Z,1.67
2019-02-26T00:20:00.507Z,1.65
2019-02-26T00:22:30.614Z,2.08
2019-02-26T00:25:00.918Z,1.90
2019-02-26T00:27:32.921Z,2.30
2019-02-26T00:30:03.072Z,1.67
2019-02-26T00:32:33.820Z,1.75
2019-02-26T00:35:04.298Z,1.82
2019-02-26T00:37:34.094Z,1.15
2019-02-26T00:40:03.214Z,2.60
2019-02-26T00:42:34.278Z,1.55
2019-02-26T00:45:07.410Z,0.88
2019-02-26T00:47:36.389Z,2.60
2019-02-26T00:50:07.316Z,1.82
2019-02-26T00:52:39.170Z,1.32
2019-02-26T00:55:09.520Z,1.70
2019-02-26T00:57:40.678Z,0.95
2019-02-26T01:00:12.554Z,1.45
2019-02-26T01:02:41.819Z,1.20
2019-02-26T01:05:13.213Z,2.25
2019-02-26T01:07:44.198Z,1.15
2019-02-26T01:10:14.353Z,1.60
2019-02-26T01:12:44.995Z,0.95
2019-02-26T01:15:14.591Z,2.40
2019-02-26T01:17:43.990Z,1.82
2019-02-26T01:20:14.551Z,0.78
2019-02-26T01:22:45.379Z,1.62
2019-02-26T01:25:15.937Z,1.85
2019-02-26T01:27:48.278Z,1.12
2019-02-26T01:30:21.117Z,1.02
2019-02-26T01:32:49.095Z,1.32
2019-02-26T01:35:18.485Z,0.88
2019-02-26T01:37:49.219Z,1.22
2019-02-26T01:40:21.290Z,1.52
2019-02-26T01:42:52.124Z,2.08
2019-02-26T01:45:22.395Z,1.07
2019-02-26T01:47:52.777Z,1.75
2019-02-26T01:50:22.282Z,1.45
2019-02-26T01:52:54.007Z,1.87
2019-02-26T01:55:25.209Z,1.72
2019-02-26T01:57:53.891Z,0.95
2019-02-26T02:00:25.953Z,1.95
2019-02-26T02:02:54.783Z,1.00
2019-02-26T02:05:26.656Z,0.90
2019-02-26T02:07:56.080Z,1.90
2019-02-26T02:10:25.419Z,1.20
2019-02-26T02:12:57.316Z,1.57
2019-02-26T02:15:25.930Z,1.17
2019-02-26T02:17:57.714Z,1.27
2019-02-26T02:20:26.439Z,1.30
2019-02-26T02:22:58.118Z,0.85
2019-02-26T02:25:28.992Z,1.22
2019-02-26T02:27:59.533Z,1.50
2019-02-26T02:30:31.369Z,1.80
2019-02-26T02:33:02.140Z,0.93
2019-02-26T02:35:32.353Z,1.10
2019-02-26T02:38:02.796Z,1.17
2019-02-26T02:40:33.236Z,1.20
2019-02-26T02:43:04.456Z,1.25
2019-02-26T02:45:33.467Z,1.92
2019-02-26T02:48:04.138Z,1.40
2019-02-26T02:50:34.227Z,1.92
2019-02-26T02:53:04.027Z,0.70
2019-02-26T02:55:33.751Z,1.07
2019-02-26T02:58:08.951Z,1.10
2019-02-26T03:00:38.462Z,1.00
2019-02-26T03:03:07.859Z,1.02
2019-02-26T03:05:40.041Z,1.70
2019-02-26T03:08:10.221Z,1.55
2019-02-26T03:10:42.325Z,1.67
2019-02-26T03:13:10.491Z,1.32
2019-02-26T03:15:40.525Z,1.55
2019-02-26T03:18:12.537Z,1.65
2019-02-26T03:20:41.132Z,1.52
2019-02-26T03:23:13.114Z,1.62
2019-02-26T03:25:44.321Z,1.67
2019-02-26T03:28:12.826Z,2.25
2019-02-26T03:30:44.413Z,1.00
2019-02-26T03:33:13.914Z,1.50
2019-02-26T03:35:43.815Z,1.40
2019-02-26T03:38:14.996Z,1.45
2019-02-26T03:40:44.459Z,1.00
2019-02-26T03:43:16.035Z,1.42
2019-02-26T03:45:47.389Z,1.30
2019-02-26T03:48:19.258Z,1.27
2019-02-26T03:50:47.118Z,0.80
2019-02-26T03:53:16.320Z,1.10
2019-02-26T03:55:45.588Z,1.22
2019-02-26T03:58:15.002Z,1.07
2019-02-26T04:00:46.751Z,1.22
2019-02-26T04:03:17.334Z,1.17
2019-02-26T04:05:46.668Z,1.22
2019-02-26T04:08:16.567Z,1.67
2019-02-26T04:10:47.941Z,0.90
2019-02-26T04:13:18.236Z,2.35
2019-02-26T04:15:47.479Z,0.82
2019-02-26T04:18:16.984Z,1.25
2019-02-26T04:20:46.419Z,1.40
2019-02-26T04:23:18.688Z,1.22
2019-02-26T04:26:06.059Z,0.90
2019-02-26T04:28:44.974Z,2.95
2019-02-26T04:32:09.541Z,1.92
2019-02-26T04:35:00.316Z,1.37
2019-02-26T04:37:58.545Z,1.52
2019-02-26T04:41:02.951Z,1.10
2019-02-26T04:44:03.792Z,1.85
2019-02-26T04:46:54.035Z,1.70
2019-02-26T04:49:27.169Z,1.90
2019-02-26T04:51:56.015Z,1.62
2019-02-26T04:54:27.125Z,1.85
2019-02-26T04:56:56.655Z,2.40
2019-02-26T04:59:25.888Z,2.52
2019-02-26T05:01:57.412Z,2.20
2019-02-26T05:04:28.105Z,2.15
2019-02-26T05:06:57.648Z,1.60
2019-02-26T05:09:27.425Z,2.17
2019-02-26T05:11:57.947Z,1.40
2019-02-26T05:14:27.085Z,1.32
2019-02-26T05:16:56.306Z,1.77
2019-02-26T05:19:25.744Z,1.10
2019-02-26T05:21:56.799Z,3.55
2019-02-26T05:24:26.409Z,1.12
2019-02-26T05:26:55.692Z,2.20
2019-02-26T05:29:25.403Z,1.20
2019-02-26T05:31:55.542Z,1.30
2019-02-26T05:34:26.019Z,1.80
2019-02-26T05:36:55.571Z,1.75
2019-02-26T05:39:26.746Z,1.00
2019-02-26T05:45:44.540Z,1.27
2019-02-26T05:48:16.201Z,1.17
2019-02-26T05:50:44.913Z,1.52
2019-02-26T05:53:14.420Z,1.32
2019-02-26T05:55:46.996Z,1.47
2019-02-26T05:58:18.023Z,1.45
2019-02-26T06:00:45.382Z,1.65
2019-02-26T06:03:18.331Z,1.87
2019-02-26T06:05:48.981Z,1.20
2019-02-26T06:08:17.584Z,1.02
2019-02-26T06:10:47.150Z,2.02
2019-02-26T06:13:17.181Z,1.95
2019-02-26T06:15:46.903Z,1.05
2019-02-26T06:18:16.460Z,0.82
2019-02-26T06:20:46.026Z,0.98
2019-02-26T06:23:15.480Z,2.40
2019-02-26T06:25:44.752Z,2.80
2019-02-26T06:28:15.995Z,1.95
2019-02-26T06:30:45.428Z,1.37
2019-02-26T06:33:16.369Z,1.50
2019-02-26T06:35:45.850Z,0.72
2019-02-26T06:38:14.979Z,1.77
2019-02-26T06:40:47.127Z,1.22
2019-02-26T06:43:15.567Z,1.45
2019-02-26T06:45:47.448Z,1.15
2019-02-26T06:48:17.631Z,1.77
2019-02-26T06:50:47.275Z,1.72
2019-02-26T06:53:18.736Z,1.47
2019-02-26T06:55:47.393Z,1.45
2019-02-26T06:58:29.539Z,2.30
2019-02-26T07:01:00.275Z,1.52
2019-02-26T07:03:29.484Z,1.55
2019-02-26T07:06:01.627Z,1.80
2019-02-26T07:08:30.977Z,1.77
2019-02-26T07:11:00.268Z,1.77
2019-02-26T07:13:29.808Z,2.25
2019-02-26T07:15:58.988Z,1.30
2019-02-26T07:18:28.389Z,1.55
2019-02-26T07:21:00.109Z,1.72
2019-02-26T07:23:29.754Z,4.67
2019-02-26T07:26:00.240Z,1.67
2019-02-26T07:28:29.698Z,2.15
2019-02-26T07:31:00.470Z,2.62
2019-02-26T07:33:32.269Z,2.40
2019-02-26T07:36:02.342Z,2.72
2019-02-26T07:38:40.847Z,3.08
2019-02-26T07:41:05.645Z,3.42
2019-02-26T07:43:36.625Z,1.32
2019-02-26T07:46:05.555Z,3.10
2019-02-26T07:48:35.267Z,1.47
2019-02-26T07:51:04.660Z,2.15
2019-02-26T07:53:34.636Z,3.05
2019-02-26T07:56:06.200Z,5.28
2019-02-26T07:58:36.070Z,3.15
2019-02-26T08:01:06.324Z,2.77
2019-02-26T08:03:36.027Z,1.70
2019-02-26T08:06:07.187Z,1.92
2019-02-26T08:08:37.443Z,2.15
2019-02-26T08:11:07.779Z,2.33
2019-02-26T08:13:37.212Z,2.60
2019-02-26T08:16:06.607Z,3.75
2019-02-26T08:18:36.055Z,1.90
2019-02-26T08:21:05.577Z,4.10
2019-02-26T08:23:35.284Z,2.35
2019-02-26T08:26:04.679Z,3.20
2019-02-26T08:28:34.120Z,3.12
2019-02-26T08:31:05.316Z,3.87
2019-02-26T08:33:35.368Z,3.17
2019-02-26T08:36:04.507Z,3.50
2019-02-26T08:38:33.940Z,3.25
2019-02-26T08:41:03.424Z,2.37
2019-02-26T08:43:32.867Z,2.95
2019-02-26T08:46:01.995Z,3.40
2019-02-26T08:48:31.760Z,3.15
2019-02-26T08:51:05.340Z,3.40
2019-02-26T08:53:32.047Z,2.35
2019-02-26T08:56:03.940Z,2.65
2019-02-26T08:58:32.615Z,3.95
2019-02-26T09:01:02.100Z,4.22
2019-02-26T09:03:40.395Z,3.95
2019-02-26T09:06:10.925Z,4.47
2019-02-26T09:08:35.643Z,6.58
2019-02-26T09:11:07.618Z,5.85
2019-02-26T09:13:38.705Z,4.95
2019-02-26T09:16:08.403Z,4.22
2019-02-26T09:18:40.532Z,5.85
2019-02-26T09:21:10.124Z,3.25
2019-02-26T09:23:40.611Z,5.42
2019-02-26T09:26:10.448Z,3.62
2019-02-26T09:28:39.696Z,4.33
2019-02-26T09:31:09.653Z,4.53
2019-02-26T09:33:40.949Z,3.75
2019-02-26T09:36:23.189Z,4.50
2019-02-26T09:38:51.383Z,5.40
2019-02-26T09:41:21.467Z,3.70
2019-02-26T09:43:51.003Z,2.72
2019-02-26T09:46:20.472Z,2.52
2019-02-26T09:48:49.721Z,4.35
2019-02-26T09:51:18.856Z,2.77
2019-02-26T09:53:50.076Z,6.20
2019-02-26T09:56:18.872Z,3.87
2019-02-26T09:58:50.705Z,2.33
2019-02-26T10:01:19.423Z,2.45
2019-02-26T10:03:48.934Z,2.17
2019-02-26T10:06:19.322Z,2.83
2019-02-26T10:08:51.338Z,3.70
2019-02-26T10:11:21.389Z,4.10
2019-02-26T10:13:52.063Z,2.65
2019-02-26T10:16:23.404Z,4.10
2019-02-26T10:18:54.334Z,3.15
2019-02-26T10:21:23.231Z,3.12
2019-02-26T10:23:54.195Z,3.15
2019-02-26T10:26:26.162Z,2.50
2019-02-26T10:28:59.042Z,3.12
2019-02-26T10:31:27.618Z,1.52
2019-02-26T10:33:57.223Z,2.55
2019-02-26T10:36:30.329Z,1.85
2019-02-26T10:39:00.230Z,2.75
2019-02-26T10:41:29.192Z,2.00
2019-02-26T10:43:58.367Z,3.15
2019-02-26T10:46:29.395Z,4.22
2019-02-26T10:48:58.386Z,4.35
2019-02-26T10:51:27.860Z,2.92
2019-02-26T10:53:59.726Z,4.20
2019-02-26T10:56:30.579Z,3.35
2019-02-26T10:59:05.386Z,2.45
2019-02-26T11:01:31.526Z,3.15
2019-02-26T11:04:01.447Z,3.77
2019-02-26T11:06:33.278Z,2.95
2019-02-26T11:09:02.296Z,2.47
2019-02-26T11:11:32.902Z,2.87
2019-02-26T11:14:02.394Z,3.15
2019-02-26T11:16:33.098Z,2.08
2019-02-26T11:19:04.299Z,2.40
2019-02-26T11:21:34.419Z,3.00
2019-02-26T11:24:05.983Z,3.22
2019-02-26T11:26:38.062Z,2.65
2019-02-26T11:29:06.563Z,2.45
2019-02-26T11:31:36.541Z,4.50
2019-02-26T11:34:09.988Z,2.72
2019-02-26T11:36:38.967Z,2.58
2019-02-26T11:39:09.390Z,3.47
2019-02-26T11:41:39.687Z,2.25
2019-02-26T11:44:12.477Z,2.62
2019-02-26T11:46:40.048Z,3.40
2019-02-26T11:49:11.831Z,5.28
2019-02-26T11:51:42.413Z,2.52
2019-02-26T11:54:12.966Z,1.82
2019-02-26T11:56:44.539Z,2.37
2019-02-26T11:59:14.854Z,1.42
2019-02-26T12:01:45.067Z,2.00
2019-02-26T12:04:17.033Z,1.85
2019-02-26T12:06:45.927Z,2.00
2019-02-26T12:09:16.142Z,1.50
2019-02-26T12:11:45.746Z,2.05
2019-02-26T12:14:16.955Z,2.08
2019-02-26T12:16:46.592Z,1.52
2019-02-26T12:19:15.771Z,1.75
2019-02-26T12:21:45.532Z,1.15
2019-02-26T12:24:15.008Z,2.50
2019-02-26T12:26:47.371Z,0.82
2019-02-26T12:29:16.645Z,1.10
2019-02-26T12:31:47.123Z,1.47
2019-02-26T12:34:17.602Z,0.85
2019-02-26T12:36:48.140Z,1.75
2019-02-26T12:39:21.022Z,0.85
2019-02-26T12:41:49.967Z,1.62
2019-02-26T12:44:19.417Z,2.05
2019-02-26T12:46:51.154Z,1.52
2019-02-26T12:49:22.402Z,1.87
2019-02-26T12:51:54.018Z,1.60
2019-02-26T12:54:22.699Z,1.00
2019-02-26T12:56:54.760Z,2.12
2019-02-26T12:59:23.047Z,1.50
2019-02-26T13:01:52.182Z,1.00
2019-02-26T13:04:24.797Z,1.02
2019-02-26T13:06:52.216Z,1.50
2019-02-26T13:09:26.480Z,1.67
2019-02-26T13:12:01.163Z,1.55
2019-02-26T13:14:23.397Z,1.77
2019-02-26T13:16:57.172Z,1.70
2019-02-26T13:19:26.389Z,1.60
2019-02-26T13:22:00.180Z,1.15
2019-02-26T13:24:26.838Z,1.05
2019-02-26T13:26:59.704Z,1.10
2019-02-26T13:29:27.267Z,1.10
2019-02-26T13:31:59.806Z,2.27
2019-02-26T13:34:27.587Z,2.22
2019-02-26T13:36:57.176Z,1.10
2019-02-26T13:39:36.685Z,1.57
2019-02-26T13:42:03.538Z,1.40
2019-02-26T13:44:28.608Z,1.47
2019-02-26T13:46:58.112Z,1.55
2019-02-26T13:49:27.775Z,0.98
2019-02-26T13:51:57.255Z,0.95
2019-02-26T13:54:26.992Z,0.90
2019-02-26T13:56:56.177Z,1.30
2019-02-26T13:59:25.919Z,0.80
2019-02-26T14:01:55.367Z,2.00
2019-02-26T14:04:25.084Z,2.47
2019-02-26T14:06:54.512Z,1.77
2019-02-26T14:09:23.722Z,1.25
2019-02-26T14:11:53.255Z,1.17
2019-02-26T14:14:22.743Z,2.25
2019-02-26T14:16:51.921Z,1.55
2019-02-26T14:19:21.392Z,1.22
2019-02-26T14:21:50.839Z,2.27
2019-02-26T14:24:20.203Z,2.00
2019-02-26T14:26:49.935Z,1.75
2019-02-26T14:29:19.079Z,1.72
2019-02-26T14:31:48.872Z,2.10
2019-02-26T14:34:18.617Z,2.37
2019-02-26T14:36:48.143Z,2.05
2019-02-26T14:39:17.995Z,1.95
2019-02-26T14:41:47.255Z,2.65
2019-02-26T14:44:16.931Z,3.35
2019-02-26T14:46:46.651Z,2.08
2019-02-26T14:49:16.451Z,2.65
2019-02-26T14:51:45.992Z,2.72
2019-02-26T14:54:15.406Z,2.87
2019-02-26T14:56:45.452Z,3.42
2019-02-26T14:59:15.203Z,2.22
2019-02-26T15:01:44.833Z,2.47
2019-02-26T15:04:14.330Z,2.50
2019-02-26T15:06:43.579Z,2.92
2019-02-26T15:09:12.988Z,2.20
2019-02-26T15:11:42.163Z,2.30
2019-02-26T15:14:11.324Z,2.42
2019-02-26T15:16:40.548Z,2.27
2019-02-26T15:19:10.232Z,4.45
2019-02-26T15:21:39.487Z,2.60
2019-02-26T15:24:09.006Z,3.15
2019-02-26T15:26:38.260Z,2.02
2019-02-26T15:29:07.480Z,3.20
2019-02-26T15:31:37.283Z,3.02
2019-02-26T15:34:06.707Z,3.42
2019-02-26T15:36:36.335Z,4.05
2019-02-26T15:39:07.334Z,2.98
2019-02-26T15:41:36.588Z,2.40
2019-02-26T15:44:05.831Z,1.15
2019-02-26T15:46:35.606Z,2.08
2019-02-26T15:49:07.340Z,3.10
2019-02-26T15:51:36.531Z,4.75
2019-02-26T15:54:06.063Z,2.47
2019-02-26T15:56:35.612Z,3.58
2019-02-26T15:59:05.337Z,4.97
2019-02-26T16:01:34.619Z,6.33
2019-02-26T16:04:03.842Z,4.35
2019-02-26T16:06:33.016Z,9.43
2019-02-26T16:09:02.686Z,8.00
2019-02-26T16:11:32.127Z,4.72
2019-02-26T16:14:01.532Z,4.72
2019-02-26T16:16:31.325Z,2.70
2019-02-26T16:19:00.802Z,2.10
2019-02-26T16:21:30.897Z,2.42
2019-02-26T16:24:00.423Z,2.95
2019-02-26T16:26:30.000Z,1.72
2019-02-26T16:29:01.001Z,2.60
2019-02-26T16:31:30.713Z,5.85
2019-02-26T16:34:00.387Z,3.37
2019-02-26T16:36:31.585Z,3.87
2019-02-26T16:39:00.708Z,3.08
2019-02-26T16:41:30.834Z,2.58
2019-02-26T16:44:00.505Z,3.47
2019-02-26T16:46:30.872Z,4.10
2019-02-26T16:49:00.900Z,3.45
2019-02-26T16:51:30.175Z,4.03
2019-02-26T16:54:00.692Z,4.30
2019-02-26T16:56:30.511Z,3.85
2019-02-26T16:58:59.940Z,3.87
2019-02-26T17:01:29.459Z,5.58
2019-02-26T17:03:59.239Z,4.80
2019-02-26T17:06:28.512Z,7.72
2019-02-26T17:08:58.280Z,5.05
2019-02-26T17:11:27.478Z,3.62
2019-02-26T17:13:56.964Z,2.60
2019-02-26T17:16:31.288Z,3.77
2019-02-26T17:18:58.203Z,2.83
2019-02-26T17:21:30.507Z,3.45
2019-02-26T17:23:58.631Z,4.08
2019-02-26T17:26:28.411Z,4.85
2019-02-26T17:28:57.816Z,4.95
2019-02-26T17:31:28.684Z,6.05
2019-02-26T17:33:59.107Z,2.98
2019-02-26T17:36:28.619Z,4.05
2019-02-26T17:38:57.760Z,3.65
2019-02-26T17:41:27.364Z,3.08
2019-02-26T17:43:56.855Z,3.10
2019-02-26T17:46:27.811Z,3.95
2019-02-26T17:49:02.603Z,5.25
2019-02-26T17:51:30.044Z,4.05
2019-02-26T17:54:01.967Z,3.37
2019-02-26T17:56:31.104Z,2.52
2019-02-26T17:59:00.651Z,3.55
2019-02-26T18:01:30.223Z,2.50
2019-02-26T18:03:59.630Z,3.47
2019-02-26T18:06:28.824Z,3.10
2019-02-26T18:08:58.039Z,3.12
2019-02-26T18:11:27.279Z,4.12
2019-02-26T18:13:57.829Z,4.28
2019-02-26T18:16:27.643Z,3.80
2019-02-26T18:18:57.208Z,3.62
2019-02-26T18:21:26.439Z,3.62
2019-02-26T18:23:55.767Z,3.65
2019-02-26T18:26:25.548Z,2.72
2019-02-26T18:28:55.575Z,4.62
2019-02-26T18:31:26.634Z,3.33
2019-02-26T18:33:55.730Z,3.05
2019-02-26T18:36:25.049Z,3.22
2019-02-26T18:38:54.552Z,3.98
2019-02-26T18:41:23.818Z,2.95
2019-02-26T18:43:53.707Z,2.47
2019-02-26T18:46:24.305Z,3.40
2019-02-26T18:48:54.155Z,1.87
2019-02-26T18:51:24.961Z,3.08
2019-02-26T18:53:54.200Z,2.83
2019-02-26T18:56:24.547Z,2.92
2019-02-26T18:58:53.968Z,3.70
2019-02-26T19:01:25.967Z,3.10
2019-02-26T19:03:55.236Z,4.35
2019-02-26T19:06:24.646Z,4.05
2019-02-26T19:08:55.495Z,2.40
2019-02-26T19:11:25.669Z,2.77
2019-02-26T19:13:55.327Z,2.67
2019-02-26T19:16:24.480Z,3.85
2019-02-26T19:18:54.071Z,2.62
2019-02-26T19:21:23.228Z,2.80
2019-02-26T19:23:52.733Z,2.70
2019-02-26T19:26:21.886Z,2.58
2019-02-26T19:28:51.159Z,2.90
2019-02-26T19:31:20.311Z,3.02
2019-02-26T19:33:50.147Z,3.27
2019-02-26T19:36:21.002Z,2.70
2019-02-26T19:38:50.619Z,3.70
2019-02-26T19:41:20.332Z,2.50
2019-02-26T19:43:49.804Z,3.22
2019-02-26T19:46:18.945Z,2.15
2019-02-26T19:48:48.716Z,2.40
2019-02-26T19:51:21.926Z,2.42
2019-02-26T19:53:49.064Z,2.92
2019-02-26T19:56:23.201Z,2.12
2019-02-26T19:58:53.152Z,2.08
2019-02-26T20:01:25.499Z,1.87
2019-02-26T20:03:53.817Z,3.33
2019-02-26T20:06:24.941Z,2.98
2019-02-26T20:08:57.321Z,3.33
2019-02-26T20:11:29.171Z,3.42
2019-02-26T20:14:04.690Z,1.72
2019-02-26T20:16:30.516Z,2.37
2019-02-26T20:19:00.036Z,3.27
2019-02-26T20:21:29.204Z,2.65
2019-02-26T20:23:58.637Z,3.08
2019-02-26T20:26:28.113Z,1.55
2019-02-26T20:28:57.829Z,2.05
2019-02-26T20:31:28.934Z,2.65
2019-02-26T20:33:58.459Z,1.98
2019-02-26T20:36:28.080Z,2.60
2019-02-26T20:38:57.881Z,1.65
2019-02-26T20:41:27.299Z,2.00
2019-02-26T20:43:56.764Z,6.25
2019-02-26T20:46:26.261Z,1.87
2019-02-26T20:48:56.078Z,4.90
2019-02-26T20:51:27.209Z,4.47
2019-02-26T20:53:57.212Z,2.55
2019-02-26T20:56:28.598Z,5.08
2019-02-26T20:58:57.979Z,2.72
2019-02-26T21:01:29.706Z,6.10
2019-02-26T21:03:58.352Z,3.02
2019-02-26T21:06:27.768Z,2.00
2019-02-26T21:08:57.251Z,4.87
2019-02-26T21:11:26.941Z,2.52
2019-02-26T21:13:56.132Z,1.40
2019-02-26T21:16:25.623Z,2.37
2019-02-26T21:18:54.879Z,1.92
2019-02-26T21:21:24.404Z,2.00
2019-02-26T21:23:53.751Z,2.08
2019-02-26T21:26:23.059Z,1.75
2019-02-26T21:28:52.323Z,2.62
2019-02-26T21:31:21.657Z,2.30
2019-02-26T21:33:51.108Z,2.52
2019-02-26T21:36:20.663Z,2.40
2019-02-26T21:38:50.181Z,1.75
2019-02-26T21:41:21.042Z,2.20
2019-02-26T21:43:50.215Z,2.62
2019-02-26T21:46:22.555Z,1.85
2019-02-26T21:48:51.687Z,2.30
2019-02-26T21:51:21.252Z,3.25
2019-02-26T21:53:51.096Z,2.40
2019-02-26T21:56:20.777Z,2.42
2019-02-26T21:58:50.265Z,4.67
2019-02-26T22:01:19.474Z,2.52
2019-02-26T22:03:48.801Z,2.42
2019-02-26T22:06:17.954Z,2.35
2019-02-26T22:08:48.404Z,2.72
2019-02-26T22:11:18.444Z,2.72
2019-02-26T22:13:48.845Z,2.72
2019-02-26T22:16:18.426Z,1.92
2019-02-26T22:18:48.251Z,2.90
2019-02-26T22:21:19.116Z,2.50
2019-02-26T22:23:49.657Z,2.95
2019-02-26T22:26:19.161Z,2.12
2019-02-26T22:28:48.923Z,2.80
2019-02-26T22:31:18.171Z,2.35
2019-02-26T22:33:47.311Z,2.55
2019-02-26T22:36:17.097Z,2.15
2019-02-26T22:38:49.055Z,2.15
2019-02-26T22:41:18.332Z,2.33
2019-02-26T22:43:48.179Z,3.37
2019-02-26T22:46:17.650Z,2.02
2019-02-26T22:48:47.408Z,2.42
2019-02-26T22:51:18.571Z,2.45
2019-02-26T22:53:48.079Z,2.22
2019-02-26T22:56:17.344Z,1.62
2019-02-26T22:58:46.751Z,2.87
2019-02-26T23:01:30.301Z,2.30
2019-02-26T23:03:54.859Z,1.90
2019-02-26T23:06:24.295Z,2.45
2019-02-26T23:08:53.539Z,1.55
2019-02-26T23:11:23.723Z,2.00
2019-02-26T23:13:53.897Z,1.82
2019-02-26T23:16:23.819Z,1.67
2019-02-26T23:18:53.056Z,1.60
2019-02-26T23:21:22.864Z,2.30
2019-02-26T23:23:54.695Z,1.55
2019-02-26T23:26:23.611Z,2.02
2019-02-26T23:28:54.966Z,1.87
2019-02-26T23:31:24.383Z,1.98
2019-02-26T23:33:53.796Z,1.87
2019-02-26T23:36:25.728Z,2.27
2019-02-26T23:38:54.393Z,1.67
2019-02-26T23:41:23.827Z,1.85
2019-02-26T23:43:53.307Z,1.80
2019-02-26T23:46:22.739Z,2.35
2019-02-26T23:48:51.947Z,1.80
2019-02-26T23:51:21.341Z,1.75
2019-02-26T23:53:50.786Z,2.35
2019-02-26T23:56:20.514Z,2.05
2019-02-26T23:58:50.179Z,1.25
